CEB024 RPLL-RPVP
Flight info
| Callsign | CEB024 |
|---|---|
| Flight time | N/A |
| Altitude | 34000 |
| Route | BUCAL4V BUCAL M646 NOMYO NOMYO2W |
| Aircraft | A20N/M-SDE2E3FGHIRWXY/LB1 |
Departure
| Time | 2026-05-06 16:01 |
|---|---|
| Airport | Ninoy Aquino International Airport (RPLL) |
Arrival
| Time | N/A |
|---|---|
| Airport | Puerto Princesa International Airport / PAF Antonio Bautista Air Base (RPVP) |
| Time | Latitude | Longitude | Altitude | Speed | Heading |
|---|---|---|---|---|---|
| 2026-05-06 15:35 | 14.52099 | 121.01095 | 81 ft | 0 kts | 44° |
| 2026-05-06 15:46 | 14.52091 | 121.01087 | 82 ft | 2 kts | 44° |
| 2026-05-06 15:46 | 14.52081 | 121.01077 | 81 ft | 2 kts | 44° |
| 2026-05-06 15:46 | 14.52070 | 121.01067 | 81 ft | 2 kts | 44° |
| 2026-05-06 15:46 | 14.52059 | 121.01055 | 81 ft | 2 kts | 44° |
| 2026-05-06 15:47 | 14.52048 | 121.01045 | 81 ft | 2 kts | 44° |
| 2026-05-06 15:47 | 14.52041 | 121.01038 | 81 ft | 1 kts | 44° |
| 2026-05-06 15:47 | 14.52029 | 121.01028 | 81 ft | 2 kts | 19° |
| 2026-05-06 15:47 | 14.52014 | 121.01025 | 81 ft | 2 kts | 356° |
| 2026-05-06 15:48 | 14.51999 | 121.01029 | 81 ft | 2 kts | 332° |
| 2026-05-06 15:48 | 14.51991 | 121.01035 | 81 ft | 0 kts | 316° |
| 2026-05-06 15:48 | 14.51986 | 121.01041 | 81 ft | 0 kts | 314° |
| 2026-05-06 15:53 | 14.51989 | 121.01038 | 81 ft | 1 kts | 314° |
| 2026-05-06 15:53 | 14.51999 | 121.01027 | 81 ft | 2 kts | 313° |
| 2026-05-06 15:53 | 14.52014 | 121.01010 | 81 ft | 3 kts | 316° |
| 2026-05-06 15:54 | 14.52037 | 121.00988 | 81 ft | 5 kts | 315° |
| 2026-05-06 15:54 | 14.52066 | 121.00959 | 81 ft | 6 kts | 315° |
| 2026-05-06 15:54 | 14.52099 | 121.00924 | 81 ft | 7 kts | 314° |
| 2026-05-06 15:54 | 14.52138 | 121.00882 | 81 ft | 8 kts | 313° |
| 2026-05-06 15:55 | 14.52184 | 121.00835 | 81 ft | 9 kts | 316° |
| 2026-05-06 15:55 | 14.52234 | 121.00784 | 81 ft | 10 kts | 314° |
| 2026-05-06 15:55 | 14.52270 | 121.00746 | 81 ft | 11 kts | 314° |
| 2026-05-06 15:55 | 14.52308 | 121.00707 | 81 ft | 11 kts | 315° |
| 2026-05-06 15:57 | 14.52461 | 121.00458 | 81 ft | 0 kts | 223° |
| 2026-05-06 15:58 | 14.52458 | 121.00455 | 81 ft | 1 kts | 223° |
| 2026-05-06 15:59 | 14.52450 | 121.00448 | 81 ft | 2 kts | 222° |
| 2026-05-06 15:59 | 14.52436 | 121.00436 | 81 ft | 3 kts | 220° |
| 2026-05-06 15:59 | 14.52415 | 121.00417 | 81 ft | 4 kts | 217° |
| 2026-05-06 15:59 | 14.52381 | 121.00406 | 81 ft | 5 kts | 174° |
| 2026-05-06 16:00 | 14.52343 | 121.00427 | 81 ft | 6 kts | 135° |
| 2026-05-06 16:00 | 14.52227 | 121.00546 | 81 ft | 58 kts | 134° |
| 2026-05-06 16:00 | 14.51757 | 121.01034 | 82 ft | 129 kts | 135° |
| 2026-05-06 16:00 | 14.51004 | 121.01817 | 241 ft | 169 kts | 132° |
| 2026-05-06 16:01 | 14.50176 | 121.02724 | 811 ft | 177 kts | 131° |
| 2026-05-06 16:01 | 14.49334 | 121.03609 | 1591 ft | 177 kts | 132° |
| 2026-05-06 16:01 | 14.48459 | 121.04507 | 2277 ft | 178 kts | 132° |
| 2026-05-06 16:01 | 14.47573 | 121.05415 | 2735 ft | 184 kts | 132° |
| 2026-05-06 16:02 | 14.46632 | 121.06373 | 3125 ft | 195 kts | 132° |
| 2026-05-06 16:02 | 14.45622 | 121.07405 | 3445 ft | 211 kts | 133° |
| 2026-05-06 16:02 | 14.44536 | 121.08522 | 3705 ft | 232 kts | 133° |
| 2026-05-06 16:02 | 14.43338 | 121.09763 | 3952 ft | 255 kts | 132° |
| 2026-05-06 16:03 | 14.42036 | 121.11118 | 4466 ft | 268 kts | 133° |
| 2026-05-06 16:03 | 14.40704 | 121.12506 | 5134 ft | 274 kts | 132° |
| 2026-05-06 16:03 | 14.39367 | 121.13900 | 5874 ft | 277 kts | 133° |
| 2026-05-06 16:03 | 14.38003 | 121.15324 | 6626 ft | 280 kts | 133° |
| 2026-05-06 16:04 | 14.36644 | 121.16743 | 7369 ft | 283 kts | 133° |
| 2026-05-06 16:04 | 14.35255 | 121.18194 | 8092 ft | 286 kts | 132° |
| 2026-05-06 16:04 | 14.33848 | 121.19666 | 8816 ft | 289 kts | 133° |
| 2026-05-06 16:04 | 14.32443 | 121.21142 | 9502 ft | 292 kts | 132° |
| 2026-05-06 16:05 | 14.31006 | 121.22653 | 10182 ft | 295 kts | 133° |
| 2026-05-06 16:05 | 14.29549 | 121.24190 | 10600 ft | 308 kts | 132° |
| 2026-05-06 16:05 | 14.27899 | 121.25668 | 10895 ft | 326 kts | 148° |
| 2026-05-06 16:05 | 14.25701 | 121.26459 | 11472 ft | 334 kts | 171° |
| 2026-05-06 16:06 | 14.23387 | 121.26443 | 12125 ft | 339 kts | 193° |
| 2026-05-06 16:06 | 14.21241 | 121.25408 | 12721 ft | 343 kts | 218° |
| 2026-05-06 16:06 | 14.19557 | 121.23671 | 13352 ft | 344 kts | 227° |
| 2026-05-06 16:06 | 14.17948 | 121.21835 | 13916 ft | 348 kts | 227° |
| 2026-05-06 16:07 | 14.16305 | 121.19977 | 14501 ft | 351 kts | 227° |
| 2026-05-06 16:07 | 14.14645 | 121.18119 | 15060 ft | 353 kts | 227° |
| 2026-05-06 16:07 | 14.12976 | 121.16264 | 15596 ft | 356 kts | 226° |
| 2026-05-06 16:07 | 14.11283 | 121.14393 | 16120 ft | 359 kts | 226° |
| 2026-05-06 16:08 | 14.09557 | 121.12490 | 16631 ft | 362 kts | 226° |
| 2026-05-06 16:08 | 14.07834 | 121.10594 | 17135 ft | 365 kts | 226° |